Rocky Point, NC (28457)

12:26 PM EDT on September 23, 2014 (GMT -0400)
St. Helena | Change Station
CLOSE
Current Station
Personal Weather Station
Location: Burgaw, NC
Elevation: 49 ft
Nearby Weather Stations

Elev 49 ft 34.51 °N, 77.91 °W | Updated 26 minutes ago

Rain
Rain
61.5 °F
Feels Like 61.5 °F
N
3.0
Wind Variable Wind from NNW
Gusts 3.0 mph

Today
High -- | Low -- °F
--% Chance of Precip.
Yesterday
High -- | Low -- °F
Precip. -- in
7:00 AM 7:07 PM
Waning Crescent, 0% visible
Pressure 30.22 in
Visibility 10.0 miles
Clouds Few 4300 ft
Few 7500 ft
Overcast 10000 ft
Dew Point 60 °F
Humidity 93%
Rainfall 0.06 in
Snow Depth Not available.
UV 1.4 out of 12
Pollen 4.70 out of 12
Air Quality Not available.
Flu Activity Not available.
METAR KILM 231553Z 01011KT 10SM -RA FEW043 FEW075 OVC100 17/16 A3022 RMK AO2 SLP233 P0003 T01720156

More Conditions Fewer Conditions

Pressure 30.22 in
Visibility 10.0 miles
Clouds Few 4300 ft
Few 7500 ft
Overcast 10000 ft
Dew Point 60 °F
Humidity 93%
Rainfall 0.06 in
Snow Depth Not available.
UV 1.4 out of 12
Pollen 4.70 out of 12
Air Quality Not available.
Flu Activity Not available.
METAR KILM 231553Z 01011KT 10SM -RA FEW043 FEW075 OVC100 17/16 A3022 RMK AO2 SLP233 P0003 T01720156

More Conditions Fewer Conditions

10-Day Weather Forecast

Almanac

Astronomy

Sep. 23, 2014 Rise Set
Actual Time 7:00 AM EDT 7:07 PM EDT
Civil Twilight 6:35 AM EDT 7:32 PM EDT
Nautical Twilight 6:06 AM EDT 8:01 PM EDT
Astronomical Twilight 5:36 AM EDT 8:30 PM EDT
Moon 6:23 AM EDT 6:45 PM EDT
Length of Visible Light 12h 56m
Length of Day
12h 06m
Tomorrow will be 2m 8s shorter.
Waning Crescent, 0% of the Moon is Illuminated
Today
Waning Crescent
Sep 24
New
Oct 1
First Quarter
Oct 8
Full
Oct 15
Last Quarter

Today's Extremes

State Highs State Lows

Community

WunderPhotos

Upload Photos

1,755,743 photos uploaded!

WunderBlogs® & News

By Dr. Jeff Masters
Director of Meteorology, Weather Underground
By Kari Strenfel
Meteorologist, Weather Underground
By Christopher C. Burt
Weather Historian, Weather Underground
September 23, 2014
September 23, 2014
September 23, 2014

Nearby

Snow Depth

Station Depth Elevation
No new snow has been reported.

Earthquake Activity

City Distance Mag. Time & Date
No recent earthquake activity has been reported nearby.
Minimum magnitude displayed is 2.5.

Coastal Water Temperatures

Place Temperature
Johnny Mercer Pier, Wrightsville Beach, NC 79.0 °F
Beaufort, NC 75.0 °F
Springmaid Pier, SC 77.0 °F

Nearby Weather Stations